โตเกียว, ประเทศญี่ปุ่น

01:12 AM JST วัน สิงหาคม 31, 2014 (GMT +0900)
Tokyo (Haneda) International | Change Station
CLOSE
Current Station
Airport
Location: Tokyo,
Elevation: 26 ft
Nearby Weather Stations

Elev 26 ft 35.55 °N, 139.78 °E | Updated 12 minutes ago

Mostly Cloudy
มีเมฆคลุมเป็นส่วนใหญ่
72 ฟาเรนไฮน์
Feels Like 72 ฟาเรนไฮน์
N
9
ลม ความผันแปร ลม from ทางทิศเหนือและทิศตะวันออกเฉียงเหนือ

วันนี้
High -- | Low -- ฟาเรนไฮน์
--% Chance of Precip.
Yesterday
High -- | Low -- ฟาเรนไฮน์
Precip. -- นิ้ว
5:11 AM 6:10 PM
เดือนเสี้ยว, 23% visible
ความดัน 29.92 นิ้ว
ทัศนวิสัย 6.2 ไมล์
เมฆ Few 1200 ft
มีเมฆคลุมเป็นบางส่วน 3500 ft
มีเมฆคลุมเป็นส่วนใหญ่ 12000 ft
อุณหภูมิที่อากาศอาจจับตัวเป็นหยาดน้ำค้าง 66 ฟาเรนไฮน์
ความชื้น 83%
Rainfall 0.00 นิ้ว
Snow Depth Not available.
UV 0 out of 12
Pollen Not available.
Air Quality Not available.
Flu Activity Not available.
METAR RJTT 301600Z 03008KT 9999 FEW012 SCT035 BKN120 22/19 Q1013 NOSIG RMK 1CU012 4SC035 6AC120 A2993

More Conditions Fewer Conditions

ความดัน 29.92 นิ้ว
ทัศนวิสัย 6.2 ไมล์
เมฆ Few 1200 ft
มีเมฆคลุมเป็นบางส่วน 3500 ft
มีเมฆคลุมเป็นส่วนใหญ่ 12000 ft
อุณหภูมิที่อากาศอาจจับตัวเป็นหยาดน้ำค้าง 66 ฟาเรนไฮน์
ความชื้น 83%
Rainfall 0.00 นิ้ว
Snow Depth Not available.
UV 0 out of 12
Pollen Not available.
Air Quality Not available.
Flu Activity Not available.
METAR RJTT 301600Z 03008KT 9999 FEW012 SCT035 BKN120 22/19 Q1013 NOSIG RMK 1CU012 4SC035 6AC120 A2993

More Conditions Fewer Conditions

10-Day Weather Forecast

Almanac

ดาราศาสตร์

Aug. 31, 2014 Rise Set
Actual Time 5:11 AM JST 6:10 PM JST
Civil Twilight 4:45 AM JST 6:36 PM JST
Nautical Twilight 4:14 AM JST 7:07 PM JST
Astronomical Twilight 3:42 AM JST 7:39 PM JST
Moon 10:08 AM JST (8/31) 9:10 PM JST (8/31)
Length Of Visible Light 13h 50m
ความยาวของวัน
12h 58m
Tomorrow will be 2m 9s shorter.
เดือนเสี้ยว, 23% of the Moon is Illuminated
Aug 30
เดือนเสี้ยว
Sep 2
ไตรมาสแรก
Sep 8
พระจันทร์เต็มดวง
Sep 15
ไตรมาสล่าสุด
Sep 24
New

Yesterday's Extremes

Country Highs Country Lows

Community

WunderPhotos

Upload Photos

1,748,556 photos uploaded!

WunderBlogs® & News

Nearby

Snow Depth

Not available.

Earthquake Activity

City Distance Mag. Time & Date
No recent earthquake activity has been reported nearby.
Minimum magnitude displayed is 2.5.

Coastal Water Temperatures

สถานที่ อุณหภูมิ
No Stations Reporting

Nearby Weather Stations